createdAt,value
2023-05-31T00:02:43.504Z,100746.09
2023-05-31T00:07:45.368Z,100740.31
2023-05-31T00:12:47.146Z,100757.19
2023-05-31T00:17:50.691Z,100749.28
2023-05-31T00:22:52.869Z,100749.06
2023-05-31T00:27:56.253Z,100750.53
2023-05-31T00:32:58.066Z,100745.84
2023-05-31T00:38:06.159Z,100757.00
2023-05-31T00:43:07.914Z,100758.06
2023-05-31T00:48:09.752Z,100759.03
2023-05-31T00:53:11.830Z,100756.59
2023-05-31T00:58:13.704Z,100755.00
2023-05-31T01:03:16.732Z,100759.47
2023-05-31T01:08:18.739Z,100753.91
2023-05-31T01:13:36.556Z,100758.41
2023-05-31T01:18:50.459Z,100761.81
2023-05-31T01:23:55.183Z,100764.69
2023-05-31T01:29:02.160Z,100757.91
2023-05-31T01:34:05.528Z,100758.94
2023-05-31T01:39:08.575Z,100757.75
2023-05-31T01:44:12.687Z,100765.63
2023-05-31T01:49:14.622Z,100769.09
2023-05-31T01:54:16.655Z,100764.47
2023-05-31T01:59:19.665Z,100762.00
2023-05-31T02:04:21.485Z,100767.50
2023-05-31T02:09:23.226Z,100764.97
2023-05-31T02:14:24.933Z,100769.63
2023-05-31T02:19:26.881Z,100769.38
2023-05-31T02:24:29.564Z,100766.69
2023-05-31T02:29:31.300Z,100773.03
2023-05-31T02:34:34.660Z,100772.91
2023-05-31T02:39:36.552Z,100771.97
2023-05-31T02:44:38.394Z,100776.41
2023-05-31T02:49:41.113Z,100777.94
2023-05-31T02:54:43.161Z,100777.47
2023-05-31T02:59:50.422Z,100789.63
2023-05-31T03:04:54.661Z,100789.91
2023-05-31T03:09:57.741Z,100790.25
2023-05-31T03:14:59.490Z,100798.19
2023-05-31T03:20:01.367Z,100794.38
2023-05-31T03:25:04.994Z,100795.56
2023-05-31T03:30:08.140Z,100786.38
2023-05-31T03:35:18.300Z,100790.59
2023-05-31T03:40:21.355Z,100776.53
2023-05-31T03:45:23.344Z,100779.81
2023-05-31T03:50:27.912Z,100790.25
2023-05-31T03:55:30.005Z,100786.53
2023-05-31T04:00:32.512Z,100781.19
2023-05-31T04:05:34.690Z,100790.72
2023-05-31T04:10:36.534Z,100786.91
2023-05-31T04:15:38.305Z,100786.53
2023-05-31T04:20:40.326Z,100798.56
2023-05-31T04:25:42.363Z,100797.44
2023-05-31T04:30:45.677Z,100799.63
2023-05-31T04:35:49.212Z,100804.59
2023-05-31T04:40:55.272Z,100806.97
2023-05-31T04:45:57.034Z,100806.59
2023-05-31T04:51:00.288Z,100805.06
2023-05-31T04:56:05.494Z,100804.31
2023-05-31T05:01:08.749Z,100812.84
2023-05-31T05:06:19.028Z,100799.47
2023-05-31T05:11:20.726Z,100799.97
2023-05-31T05:16:22.572Z,100799.91
2023-05-31T05:21:25.034Z,100802.56
2023-05-31T05:26:27.054Z,100803.41
2023-05-31T05:31:31.466Z,100807.75
2023-05-31T05:36:34.925Z,100810.63
2023-05-31T05:41:37.094Z,100811.38
2023-05-31T05:46:40.402Z,100811.72
2023-05-31T05:51:42.693Z,100806.97
2023-05-31T05:56:45.169Z,100812.81
2023-05-31T06:01:48.172Z,100811.91
2023-05-31T06:06:52.668Z,100811.13
2023-05-31T06:11:54.312Z,100817.34
2023-05-31T06:16:58.318Z,100821.03
2023-05-31T06:22:01.113Z,100821.94
2023-05-31T06:27:03.925Z,100816.41
2023-05-31T06:32:10.072Z,100812.91
2023-05-31T06:37:16.117Z,100813.59
2023-05-31T06:42:18.520Z,100813.41
2023-05-31T06:47:57.467Z,100820.63
2023-05-31T06:53:28.313Z,100813.94
2023-05-31T06:58:43.838Z,100808.03
2023-05-31T07:03:45.692Z,100812.63
2023-05-31T07:08:47.811Z,100809.59
2023-05-31T07:14:06.565Z,100810.88
2023-05-31T07:19:08.978Z,100799.91
2023-05-31T07:24:13.213Z,100798.50
2023-05-31T07:29:14.954Z,100790.66
2023-05-31T07:34:16.662Z,100794.91
2023-05-31T07:39:18.700Z,100789.56
2023-05-31T07:44:20.978Z,100786.94
2023-05-31T07:49:22.712Z,100779.78
2023-05-31T07:54:24.558Z,100780.72
2023-05-31T07:59:26.742Z,100772.28
2023-05-31T08:04:28.783Z,100769.56
2023-05-31T08:09:30.761Z,100763.22
2023-05-31T08:14:32.514Z,100759.03
2023-05-31T08:19:34.284Z,100754.66
2023-05-31T08:24:36.143Z,100745.19
2023-05-31T08:29:37.846Z,100749.91
2023-05-31T08:34:39.595Z,100744.06
2023-05-31T08:39:41.411Z,100749.31
2023-05-31T08:44:44.041Z,100739.53
2023-05-31T08:49:46.660Z,100740.47
2023-05-31T08:54:49.812Z,100736.78
2023-05-31T08:59:52.923Z,100735.47
2023-05-31T09:04:57.030Z,100726.78
2023-05-31T09:09:58.751Z,100721.19
2023-05-31T09:15:00.943Z,100725.72
2023-05-31T09:20:04.658Z,100726.88
2023-05-31T09:25:08.141Z,100719.25
2023-05-31T09:30:12.206Z,100711.16
2023-05-31T09:35:16.376Z,100701.50
2023-05-31T09:40:25.952Z,100699.16
2023-05-31T09:45:29.618Z,100698.25
2023-05-31T09:50:31.537Z,100695.00
2023-05-31T09:55:43.465Z,100684.78
2023-05-31T10:00:48.882Z,100687.34
2023-05-31T10:05:50.672Z,100679.28
2023-05-31T10:10:55.621Z,100677.66
2023-05-31T10:15:59.142Z,100681.16
2023-05-31T10:21:08.174Z,100668.94
2023-05-31T10:26:19.483Z,100662.03
2023-05-31T10:31:24.329Z,100661.94
2023-05-31T10:36:26.245Z,100646.78
2023-05-31T10:41:34.668Z,100657.81
2023-05-31T10:46:41.488Z,100638.28
2023-05-31T10:51:46.479Z,100622.66
2023-05-31T10:57:00.439Z,100626.91
2023-05-31T11:02:09.193Z,100629.97
2023-05-31T11:07:23.354Z,100616.09
2023-05-31T11:12:36.750Z,100624.75
2023-05-31T11:17:52.534Z,100609.56
2023-05-31T11:23:20.228Z,100603.13
2023-05-31T11:28:22.274Z,100605.94
2023-05-31T11:33:24.369Z,100604.25
2023-05-31T11:38:26.153Z,100604.72
2023-05-31T11:43:28.049Z,100597.22
2023-05-31T11:48:40.804Z,100595.31
2023-05-31T11:53:42.606Z,100584.28
2023-05-31T11:58:47.975Z,100587.22
2023-05-31T12:03:49.609Z,100575.72
2023-05-31T12:08:53.255Z,100577.00
2023-05-31T12:13:58.692Z,100577.03
2023-05-31T12:19:00.467Z,100572.09
2023-05-31T12:24:12.434Z,100561.69
2023-05-31T12:29:14.460Z,100552.69
2023-05-31T12:34:19.188Z,100552.31
2023-05-31T12:39:22.933Z,100542.75
2023-05-31T12:44:24.680Z,100551.03
2023-05-31T12:49:28.987Z,100544.34
2023-05-31T12:54:35.265Z,100541.84
2023-05-31T12:59:38.744Z,100548.88
2023-05-31T13:04:40.457Z,100532.13
2023-05-31T13:09:42.139Z,100528.34
2023-05-31T13:14:44.831Z,100528.56
2023-05-31T13:19:53.371Z,100524.34
2023-05-31T13:25:05.042Z,100504.56
2023-05-31T13:30:08.116Z,100510.44
2023-05-31T13:35:11.133Z,100501.47
2023-05-31T13:40:13.096Z,100485.28
2023-05-31T13:45:15.304Z,100489.28
2023-05-31T13:50:17.161Z,100481.16
2023-05-31T13:55:18.880Z,100468.38
2023-05-31T14:00:20.690Z,100470.66
2023-05-31T14:05:22.435Z,100462.28
2023-05-31T14:10:24.743Z,100458.59
2023-05-31T14:15:26.449Z,100456.22
2023-05-31T14:20:28.528Z,100454.78
2023-05-31T14:25:31.266Z,100430.00
2023-05-31T14:30:33.086Z,100439.41
2023-05-31T14:35:34.878Z,100432.56
2023-05-31T14:40:37.107Z,100428.28
2023-05-31T14:45:38.960Z,100420.50
2023-05-31T14:50:41.970Z,100425.78
2023-05-31T14:55:43.685Z,100414.25
2023-05-31T15:00:45.458Z,100404.69
2023-05-31T15:05:47.160Z,100406.53
2023-05-31T15:10:49.075Z,100407.16
2023-05-31T15:15:50.905Z,100407.81
2023-05-31T15:20:52.954Z,100398.22
2023-05-31T15:25:54.762Z,100391.91
2023-05-31T15:30:56.564Z,100389.38
2023-05-31T15:35:58.382Z,100389.97
2023-05-31T15:41:00.441Z,100392.47
2023-05-31T15:46:02.339Z,100380.44
2023-05-31T15:51:04.471Z,100388.00
2023-05-31T15:56:06.237Z,100370.13
2023-05-31T16:01:08.053Z,100368.50
2023-05-31T16:06:09.789Z,100370.03
2023-05-31T16:11:11.572Z,100354.56
2023-05-31T16:16:14.670Z,100353.38
2023-05-31T16:21:17.665Z,100346.28
2023-05-31T16:26:19.464Z,100340.44
2023-05-31T16:31:22.070Z,100341.94
2023-05-31T16:36:24.501Z,100336.44
2023-05-31T16:41:26.450Z,100333.72
2023-05-31T16:46:28.225Z,100330.91
2023-05-31T16:51:30.301Z,100320.81
2023-05-31T16:56:32.087Z,100319.44
2023-05-31T17:01:34.741Z,100317.50
2023-05-31T17:06:37.707Z,100309.31
2023-05-31T17:11:40.114Z,100309.28
2023-05-31T17:16:41.823Z,100302.31
2023-05-31T17:21:43.913Z,100301.81
2023-05-31T17:26:48.379Z,100297.91
2023-05-31T17:31:50.315Z,100295.56
2023-05-31T17:36:52.015Z,100299.81
2023-05-31T17:41:53.681Z,100287.16
2023-05-31T17:46:56.048Z,100288.78
2023-05-31T17:51:57.790Z,100280.28
2023-05-31T17:56:59.523Z,100275.25
2023-05-31T18:02:01.242Z,100282.00
2023-05-31T18:07:04.454Z,100286.94
2023-05-31T18:12:07.117Z,100283.56
2023-05-31T18:17:08.818Z,100282.25
2023-05-31T18:22:10.652Z,100282.25
2023-05-31T18:27:14.267Z,100270.16
2023-05-31T18:32:18.382Z,100272.41
2023-05-31T18:37:22.705Z,100269.88
2023-05-31T18:42:24.379Z,100265.03
2023-05-31T18:47:28.499Z,100268.22
2023-05-31T18:52:30.436Z,100268.59
2023-05-31T18:57:33.232Z,100264.19
2023-05-31T19:02:36.358Z,100262.91
2023-05-31T19:07:38.150Z,100261.03
2023-05-31T19:12:39.939Z,100269.69
2023-05-31T19:17:43.435Z,100258.03
2023-05-31T19:22:51.288Z,100268.63
2023-05-31T19:27:53.213Z,100271.97
2023-05-31T19:32:55.032Z,100280.34
2023-05-31T19:37:56.849Z,100276.97
2023-05-31T19:42:58.696Z,100276.84
2023-05-31T19:48:00.716Z,100283.75
2023-05-31T19:53:03.012Z,100282.00
2023-05-31T19:58:04.799Z,100280.78
2023-05-31T20:03:06.972Z,100279.72
2023-05-31T20:08:10.438Z,100283.25
2023-05-31T20:13:13.772Z,100277.63
2023-05-31T20:18:16.502Z,100268.88
2023-05-31T20:23:18.368Z,100265.25
2023-05-31T20:28:22.899Z,100265.97
2023-05-31T20:33:27.490Z,100266.59
2023-05-31T20:38:31.264Z,100266.13
2023-05-31T20:43:36.128Z,100260.06
2023-05-31T20:48:41.167Z,100256.03
2023-05-31T20:53:45.497Z,100258.44
2023-05-31T20:58:50.697Z,100254.78
2023-05-31T21:03:52.899Z,100247.97
2023-05-31T21:08:56.548Z,100255.75
2023-05-31T21:13:58.434Z,100262.47
2023-05-31T21:19:00.145Z,100267.91
2023-05-31T21:24:02.142Z,100274.47
2023-05-31T21:29:03.826Z,100275.69
2023-05-31T21:34:06.758Z,100267.38
2023-05-31T21:39:08.495Z,100266.50
2023-05-31T21:44:10.407Z,100266.03
2023-05-31T21:49:12.515Z,100268.00
2023-05-31T21:54:14.431Z,100268.59
2023-05-31T21:59:16.263Z,100271.50
2023-05-31T22:04:18.172Z,100275.38
2023-05-31T22:09:20.005Z,100289.47
2023-05-31T22:14:21.696Z,100279.47
2023-05-31T22:19:26.776Z,100289.03
2023-05-31T22:24:28.529Z,100282.53
2023-05-31T22:29:30.487Z,100279.78
2023-05-31T22:34:32.219Z,100282.69
2023-05-31T22:39:33.973Z,100288.66
2023-05-31T22:44:35.736Z,100284.78
2023-05-31T22:49:37.616Z,100292.38
2023-05-31T22:54:39.381Z,100293.31
2023-05-31T22:59:41.264Z,100294.84
2023-05-31T23:04:44.366Z,100297.28
2023-05-31T23:09:46.684Z,100292.56
2023-05-31T23:14:48.442Z,100291.63
2023-05-31T23:19:52.383Z,100291.19
2023-05-31T23:24:54.094Z,100291.75
2023-05-31T23:29:55.926Z,100287.00
2023-05-31T23:34:57.847Z,100283.75
2023-05-31T23:39:59.609Z,100283.47
2023-05-31T23:45:01.782Z,100273.75
2023-05-31T23:50:03.941Z,100268.88
2023-05-31T23:55:06.724Z,100266.81
